sensor_id;sensor_type;location;lat;lon;timestamp;P1;durP1;ratioP1;P2;durP2;ratioP2
22415;SDS011;12204;50.600;4.608;2023-08-17T00:00:18;15.35;;;6.95;;
22415;SDS011;12204;50.600;4.608;2023-08-17T00:05:24;14.93;;;7.20;;
22415;SDS011;12204;50.600;4.608;2023-08-17T00:10:28;17.38;;;7.38;;
22415;SDS011;12204;50.600;4.608;2023-08-17T00:15:31;14.18;;;6.82;;
22415;SDS011;12204;50.600;4.608;2023-08-17T00:20:36;16.85;;;7.05;;
22415;SDS011;12204;50.600;4.608;2023-08-17T00:25:40;13.00;;;7.35;;
22415;SDS011;12204;50.600;4.608;2023-08-17T00:30:43;13.00;;;6.55;;
22415;SDS011;12204;50.600;4.608;2023-08-17T00:35:49;13.27;;;6.95;;
22415;SDS011;12204;50.600;4.608;2023-08-17T00:40:52;14.60;;;7.13;;
22415;SDS011;12204;50.600;4.608;2023-08-17T00:45:56;14.85;;;6.53;;
22415;SDS011;12204;50.600;4.608;2023-08-17T00:51:02;17.67;;;6.80;;
22415;SDS011;12204;50.600;4.608;2023-08-17T00:56:06;16.83;;;6.13;;
22415;SDS011;12204;50.600;4.608;2023-08-17T01:01:10;12.80;;;6.40;;
22415;SDS011;12204;50.600;4.608;2023-08-17T01:06:15;11.40;;;6.00;;
22415;SDS011;12204;50.600;4.608;2023-08-17T01:11:22;11.43;;;5.60;;
22415;SDS011;12204;50.600;4.608;2023-08-17T01:16:35;12.40;;;5.72;;
22415;SDS011;12204;50.600;4.608;2023-08-17T01:21:49;10.63;;;5.50;;
22415;SDS011;12204;50.600;4.608;2023-08-17T01:26:56;14.70;;;6.00;;
22415;SDS011;12204;50.600;4.608;2023-08-17T01:32:01;12.35;;;5.90;;
22415;SDS011;12204;50.600;4.608;2023-08-17T01:37:21;11.48;;;5.57;;
22415;SDS011;12204;50.600;4.608;2023-08-17T01:42:30;13.75;;;5.85;;
22415;SDS011;12204;50.600;4.608;2023-08-17T01:47:35;9.98;;;5.15;;
22415;SDS011;12204;50.600;4.608;2023-08-17T01:52:39;12.50;;;5.22;;
22415;SDS011;12204;50.600;4.608;2023-08-17T01:57:44;9.38;;;5.13;;
22415;SDS011;12204;50.600;4.608;2023-08-17T02:02:47;12.32;;;5.22;;
22415;SDS011;12204;50.600;4.608;2023-08-17T02:07:51;9.50;;;5.00;;
22415;SDS011;12204;50.600;4.608;2023-08-17T02:12:55;12.75;;;5.40;;
22415;SDS011;12204;50.600;4.608;2023-08-17T02:18:09;12.65;;;5.47;;
22415;SDS011;12204;50.600;4.608;2023-08-17T02:23:12;12.07;;;4.97;;
22415;SDS011;12204;50.600;4.608;2023-08-17T02:28:17;12.93;;;4.85;;
22415;SDS011;12204;50.600;4.608;2023-08-17T02:33:21;8.82;;;4.70;;
22415;SDS011;12204;50.600;4.608;2023-08-17T02:38:25;8.90;;;4.55;;
22415;SDS011;12204;50.600;4.608;2023-08-17T02:43:30;10.00;;;4.70;;
22415;SDS011;12204;50.600;4.608;2023-08-17T02:48:34;10.10;;;4.60;;
22415;SDS011;12204;50.600;4.608;2023-08-17T02:53:37;9.70;;;4.80;;
22415;SDS011;12204;50.600;4.608;2023-08-17T02:58:42;9.52;;;4.40;;
22415;SDS011;12204;50.600;4.608;2023-08-17T03:03:45;13.70;;;4.32;;
22415;SDS011;12204;50.600;4.608;2023-08-17T03:08:49;9.13;;;4.47;;
22415;SDS011;12204;50.600;4.608;2023-08-17T03:13:55;11.82;;;4.45;;
22415;SDS011;12204;50.600;4.608;2023-08-17T03:19:01;7.57;;;3.92;;
22415;SDS011;12204;50.600;4.608;2023-08-17T03:24:06;10.00;;;4.07;;
22415;SDS011;12204;50.600;4.608;2023-08-17T03:29:11;8.38;;;4.40;;
22415;SDS011;12204;50.600;4.608;2023-08-17T03:34:14;8.38;;;4.15;;
22415;SDS011;12204;50.600;4.608;2023-08-17T03:39:18;8.80;;;4.28;;
22415;SDS011;12204;50.600;4.608;2023-08-17T03:44:23;8.32;;;4.10;;
22415;SDS011;12204;50.600;4.608;2023-08-17T03:49:26;8.18;;;4.00;;
22415;SDS011;12204;50.600;4.608;2023-08-17T03:54:30;8.00;;;3.47;;
22415;SDS011;12204;50.600;4.608;2023-08-17T03:59:35;10.63;;;3.78;;
22415;SDS011;12204;50.600;4.608;2023-08-17T04:04:39;8.15;;;4.03;;
22415;SDS011;12204;50.600;4.608;2023-08-17T04:09:43;12.23;;;3.92;;
22415;SDS011;12204;50.600;4.608;2023-08-17T04:14:48;11.93;;;3.35;;
22415;SDS011;12204;50.600;4.608;2023-08-17T04:19:52;8.70;;;1.80;;
22415;SDS011;12204;50.600;4.608;2023-08-17T04:24:56;9.00;;;1.50;;
22415;SDS011;12204;50.600;4.608;2023-08-17T04:30:01;7.75;;;1.75;;
22415;SDS011;12204;50.600;4.608;2023-08-17T04:35:13;7.10;;;1.90;;
22415;SDS011;12204;50.600;4.608;2023-08-17T04:40:16;7.20;;;1.35;;
22415;SDS011;12204;50.600;4.608;2023-08-17T04:45:22;5.88;;;1.60;;
22415;SDS011;12204;50.600;4.608;2023-08-17T04:50:26;5.03;;;1.60;;
22415;SDS011;12204;50.600;4.608;2023-08-17T04:55:30;6.90;;;1.55;;
22415;SDS011;12204;50.600;4.608;2023-08-17T05:00:37;4.70;;;1.52;;
22415;SDS011;12204;50.600;4.608;2023-08-17T05:05:41;6.83;;;1.30;;
22415;SDS011;12204;50.600;4.608;2023-08-17T05:10:45;5.50;;;1.40;;
22415;SDS011;12204;50.600;4.608;2023-08-17T05:15:49;5.53;;;1.50;;
22415;SDS011;12204;50.600;4.608;2023-08-17T05:20:54;4.20;;;1.30;;
22415;SDS011;12204;50.600;4.608;2023-08-17T05:25:57;7.07;;;1.35;;
22415;SDS011;12204;50.600;4.608;2023-08-17T05:31:04;4.47;;;1.35;;
22415;SDS011;12204;50.600;4.608;2023-08-17T05:36:13;4.50;;;1.27;;
22415;SDS011;12204;50.600;4.608;2023-08-17T05:41:16;6.03;;;1.35;;
22415;SDS011;12204;50.600;4.608;2023-08-17T05:46:21;4.38;;;1.30;;
22415;SDS011;12204;50.600;4.608;2023-08-17T05:51:25;5.28;;;1.33;;
22415;SDS011;12204;50.600;4.608;2023-08-17T05:56:29;6.40;;;1.50;;
22415;SDS011;12204;50.600;4.608;2023-08-17T06:01:33;4.90;;;1.10;;
22415;SDS011;12204;50.600;4.608;2023-08-17T06:06:37;5.97;;;1.25;;
22415;SDS011;12204;50.600;4.608;2023-08-17T06:11:40;6.38;;;1.30;;
22415;SDS011;12204;50.600;4.608;2023-08-17T06:16:45;5.80;;;1.33;;
22415;SDS011;12204;50.600;4.608;2023-08-17T06:21:49;4.07;;;1.20;;
22415;SDS011;12204;50.600;4.608;2023-08-17T06:26:53;4.78;;;1.30;;
22415;SDS011;12204;50.600;4.608;2023-08-17T06:31:57;4.10;;;1.35;;
22415;SDS011;12204;50.600;4.608;2023-08-17T06:37:01;5.47;;;1.27;;
22415;SDS011;12204;50.600;4.608;2023-08-17T06:42:06;3.60;;;1.30;;
22415;SDS011;12204;50.600;4.608;2023-08-17T06:47:11;5.00;;;1.20;;
22415;SDS011;12204;50.600;4.608;2023-08-17T06:52:15;6.53;;;1.30;;
22415;SDS011;12204;50.600;4.608;2023-08-17T06:57:18;5.30;;;1.40;;
22415;SDS011;12204;50.600;4.608;2023-08-17T07:02:24;7.10;;;1.25;;
22415;SDS011;12204;50.600;4.608;2023-08-17T07:07:39;11.20;;;1.53;;
22415;SDS011;12204;50.600;4.608;2023-08-17T07:12:43;6.10;;;1.30;;
22415;SDS011;12204;50.600;4.608;2023-08-17T07:17:48;7.32;;;1.30;;
22415;SDS011;12204;50.600;4.608;2023-08-17T07:22:52;6.32;;;1.40;;
22415;SDS011;12204;50.600;4.608;2023-08-17T07:27:55;13.20;;;1.80;;
22415;SDS011;12204;50.600;4.608;2023-08-17T07:33:00;13.25;;;2.40;;
22415;SDS011;12204;50.600;4.608;2023-08-17T07:38:04;8.82;;;2.20;;
22415;SDS011;12204;50.600;4.608;2023-08-17T07:43:10;9.65;;;2.38;;
22415;SDS011;12204;50.600;4.608;2023-08-17T07:48:14;19.35;;;6.28;;
22415;SDS011;12204;50.600;4.608;2023-08-17T07:53:18;28.88;;;9.95;;
22415;SDS011;12204;50.600;4.608;2023-08-17T07:58:22;34.63;;;13.38;;
22415;SDS011;12204;50.600;4.608;2023-08-17T08:03:27;111.03;;;37.67;;
22415;SDS011;12204;50.600;4.608;2023-08-17T08:08:31;117.65;;;40.22;;
22415;SDS011;12204;50.600;4.608;2023-08-17T08:13:34;129.90;;;44.50;;
22415;SDS011;12204;50.600;4.608;2023-08-17T08:18:43;101.65;;;38.00;;
22415;SDS011;12204;50.600;4.608;2023-08-17T08:23:46;96.88;;;33.65;;
22415;SDS011;12204;50.600;4.608;2023-08-17T08:28:50;76.80;;;29.90;;
22415;SDS011;12204;50.600;4.608;2023-08-17T08:33:54;63.88;;;24.08;;
22415;SDS011;12204;50.600;4.608;2023-08-17T08:38:58;68.55;;;25.80;;
22415;SDS011;12204;50.600;4.608;2023-08-17T08:44:01;122.05;;;40.03;;
22415;SDS011;12204;50.600;4.608;2023-08-17T08:49:07;263.80;;;93.03;;
22415;SDS011;12204;50.600;4.608;2023-08-17T08:54:15;204.30;;;68.57;;
22415;SDS011;12204;50.600;4.608;2023-08-17T08:59:24;238.10;;;79.90;;
22415;SDS011;12204;50.600;4.608;2023-08-17T09:04:31;192.95;;;62.33;;
22415;SDS011;12204;50.600;4.608;2023-08-17T09:09:34;163.77;;;53.95;;
22415;SDS011;12204;50.600;4.608;2023-08-17T09:14:39;138.93;;;47.55;;
22415;SDS011;12204;50.600;4.608;2023-08-17T09:19:47;98.43;;;35.85;;
22415;SDS011;12204;50.600;4.608;2023-08-17T09:24:50;91.10;;;33.55;;
22415;SDS011;12204;50.600;4.608;2023-08-17T09:30:00;82.88;;;28.83;;
22415;SDS011;12204;50.600;4.608;2023-08-17T09:35:08;61.22;;;22.77;;
22415;SDS011;12204;50.600;4.608;2023-08-17T09:40:11;100.53;;;19.85;;
22415;SDS011;12204;50.600;4.608;2023-08-17T09:45:17;66.18;;;14.45;;
22415;SDS011;12204;50.600;4.608;2023-08-17T09:50:22;51.22;;;13.43;;
22415;SDS011;12204;50.600;4.608;2023-08-17T09:55:26;41.45;;;10.90;;
22415;SDS011;12204;50.600;4.608;2023-08-17T10:00:32;33.78;;;9.85;;
22415;SDS011;12204;50.600;4.608;2023-08-17T10:05:38;30.63;;;9.00;;
22415;SDS011;12204;50.600;4.608;2023-08-17T10:10:45;23.65;;;8.52;;
22415;SDS011;12204;50.600;4.608;2023-08-17T10:15:50;24.20;;;8.77;;
22415;SDS011;12204;50.600;4.608;2023-08-17T10:21:07;25.75;;;9.85;;
22415;SDS011;12204;50.600;4.608;2023-08-17T10:26:20;22.33;;;8.57;;
22415;SDS011;12204;50.600;4.608;2023-08-17T10:31:25;19.00;;;8.13;;
22415;SDS011;12204;50.600;4.608;2023-08-17T10:36:30;20.98;;;8.52;;
22415;SDS011;12204;50.600;4.608;2023-08-17T10:41:45;18.67;;;7.90;;
22415;SDS011;12204;50.600;4.608;2023-08-17T10:46:50;22.65;;;8.10;;
22415;SDS011;12204;50.600;4.608;2023-08-17T10:52:01;17.42;;;7.53;;
22415;SDS011;12204;50.600;4.608;2023-08-17T10:57:27;18.50;;;7.90;;
22415;SDS011;12204;50.600;4.608;2023-08-17T11:02:35;18.35;;;7.40;;
22415;SDS011;12204;50.600;4.608;2023-08-17T11:07:43;16.08;;;7.63;;
22415;SDS011;12204;50.600;4.608;2023-08-17T11:12:47;14.90;;;7.70;;
22415;SDS011;12204;50.600;4.608;2023-08-17T11:17:54;16.90;;;8.33;;
22415;SDS011;12204;50.600;4.608;2023-08-17T11:22:58;17.60;;;7.45;;
22415;SDS011;12204;50.600;4.608;2023-08-17T11:28:02;17.10;;;7.57;;
22415;SDS011;12204;50.600;4.608;2023-08-17T11:33:10;15.20;;;7.63;;
22415;SDS011;12204;50.600;4.608;2023-08-17T11:38:15;17.60;;;7.55;;
22415;SDS011;12204;50.600;4.608;2023-08-17T11:43:19;17.85;;;8.13;;
22415;SDS011;12204;50.600;4.608;2023-08-17T11:48:24;18.13;;;8.25;;
22415;SDS011;12204;50.600;4.608;2023-08-17T11:53:34;16.42;;;8.55;;
22415;SDS011;12204;50.600;4.608;2023-08-17T11:58:41;18.40;;;8.00;;
22415;SDS011;12204;50.600;4.608;2023-08-17T12:03:48;14.98;;;7.93;;
22415;SDS011;12204;50.600;4.608;2023-08-17T12:08:53;14.25;;;8.38;;
22415;SDS011;12204;50.600;4.608;2023-08-17T12:13:56;16.80;;;8.45;;
22415;SDS011;12204;50.600;4.608;2023-08-17T12:19:00;20.75;;;8.73;;
22415;SDS011;12204;50.600;4.608;2023-08-17T12:24:08;20.98;;;8.93;;
22415;SDS011;12204;50.600;4.608;2023-08-17T12:29:14;18.05;;;8.93;;
22415;SDS011;12204;50.600;4.608;2023-08-17T12:34:17;17.27;;;9.18;;
22415;SDS011;12204;50.600;4.608;2023-08-17T12:39:22;17.83;;;8.95;;
22415;SDS011;12204;50.600;4.608;2023-08-17T12:44:26;16.52;;;8.70;;
22415;SDS011;12204;50.600;4.608;2023-08-17T12:49:30;20.00;;;9.30;;
22415;SDS011;12204;50.600;4.608;2023-08-17T12:54:41;17.45;;;9.88;;
22415;SDS011;12204;50.600;4.608;2023-08-17T12:59:44;16.52;;;9.48;;
22415;SDS011;12204;50.600;4.608;2023-08-17T13:04:48;16.23;;;9.40;;
22415;SDS011;12204;50.600;4.608;2023-08-17T13:09:55;19.67;;;9.35;;
22415;SDS011;12204;50.600;4.608;2023-08-17T13:15:01;17.65;;;9.20;;
22415;SDS011;12204;50.600;4.608;2023-08-17T13:20:05;15.45;;;8.77;;
22415;SDS011;12204;50.600;4.608;2023-08-17T13:25:13;18.00;;;9.53;;
22415;SDS011;12204;50.600;4.608;2023-08-17T13:30:17;15.73;;;9.00;;
22415;SDS011;12204;50.600;4.608;2023-08-17T13:35:20;16.40;;;8.95;;
22415;SDS011;12204;50.600;4.608;2023-08-17T13:40:25;18.88;;;8.40;;
22415;SDS011;12204;50.600;4.608;2023-08-17T13:45:29;14.98;;;9.02;;
22415;SDS011;12204;50.600;4.608;2023-08-17T13:50:32;15.20;;;8.75;;
22415;SDS011;12204;50.600;4.608;2023-08-17T13:55:37;16.52;;;8.32;;
22415;SDS011;12204;50.600;4.608;2023-08-17T14:00:41;15.25;;;8.82;;
22415;SDS011;12204;50.600;4.608;2023-08-17T14:05:45;17.10;;;9.00;;
22415;SDS011;12204;50.600;4.608;2023-08-17T14:10:50;13.55;;;8.63;;
22415;SDS011;12204;50.600;4.608;2023-08-17T14:15:53;15.27;;;8.80;;
22415;SDS011;12204;50.600;4.608;2023-08-17T14:20:57;12.57;;;8.63;;
22415;SDS011;12204;50.600;4.608;2023-08-17T14:26:02;14.15;;;8.55;;
22415;SDS011;12204;50.600;4.608;2023-08-17T14:31:05;14.07;;;8.50;;
22415;SDS011;12204;50.600;4.608;2023-08-17T14:36:09;15.10;;;8.80;;
22415;SDS011;12204;50.600;4.608;2023-08-17T14:41:14;12.40;;;8.27;;
22415;SDS011;12204;50.600;4.608;2023-08-17T14:46:18;15.68;;;9.23;;
22415;SDS011;12204;50.600;4.608;2023-08-17T14:51:23;13.05;;;8.68;;
22415;SDS011;12204;50.600;4.608;2023-08-17T14:56:31;13.90;;;8.68;;
22415;SDS011;12204;50.600;4.608;2023-08-17T15:01:35;14.95;;;8.75;;
22415;SDS011;12204;50.600;4.608;2023-08-17T15:06:38;14.85;;;8.88;;
22415;SDS011;12204;50.600;4.608;2023-08-17T15:11:44;16.52;;;9.00;;
22415;SDS011;12204;50.600;4.608;2023-08-17T15:16:48;14.90;;;9.13;;
22415;SDS011;12204;50.600;4.608;2023-08-17T15:21:51;14.55;;;9.05;;
22415;SDS011;12204;50.600;4.608;2023-08-17T15:26:56;17.05;;;8.55;;
22415;SDS011;12204;50.600;4.608;2023-08-17T15:31:59;16.50;;;8.82;;
22415;SDS011;12204;50.600;4.608;2023-08-17T15:37:03;15.95;;;8.88;;
22415;SDS011;12204;50.600;4.608;2023-08-17T15:42:10;16.73;;;9.75;;
22415;SDS011;12204;50.600;4.608;2023-08-17T15:47:14;15.60;;;9.35;;
22415;SDS011;12204;50.600;4.608;2023-08-17T15:52:17;13.90;;;8.75;;
22415;SDS011;12204;50.600;4.608;2023-08-17T15:57:22;14.50;;;9.07;;
22415;SDS011;12204;50.600;4.608;2023-08-17T16:02:26;15.52;;;9.32;;
22415;SDS011;12204;50.600;4.608;2023-08-17T16:07:30;15.10;;;9.10;;
22415;SDS011;12204;50.600;4.608;2023-08-17T16:12:35;15.32;;;8.52;;
22415;SDS011;12204;50.600;4.608;2023-08-17T16:17:43;14.32;;;8.60;;
22415;SDS011;12204;50.600;4.608;2023-08-17T16:22:47;14.57;;;8.00;;
22415;SDS011;12204;50.600;4.608;2023-08-17T16:27:52;13.07;;;7.88;;
22415;SDS011;12204;50.600;4.608;2023-08-17T16:32:55;14.88;;;8.70;;
22415;SDS011;12204;50.600;4.608;2023-08-17T16:37:59;14.73;;;8.75;;
22415;SDS011;12204;50.600;4.608;2023-08-17T16:43:03;19.75;;;8.70;;
22415;SDS011;12204;50.600;4.608;2023-08-17T16:48:07;21.02;;;8.50;;
22415;SDS011;12204;50.600;4.608;2023-08-17T16:53:11;17.58;;;8.65;;
22415;SDS011;12204;50.600;4.608;2023-08-17T17:05:19;17.85;;;9.02;;
22415;SDS011;12204;50.600;4.608;2023-08-17T17:10:27;17.63;;;8.82;;
22415;SDS011;12204;50.600;4.608;2023-08-17T17:15:48;19.65;;;9.60;;
22415;SDS011;12204;50.600;4.608;2023-08-17T17:27:21;25.67;;;9.48;;
22415;SDS011;12204;50.600;4.608;2023-08-17T17:32:26;20.95;;;9.32;;
22415;SDS011;12204;50.600;4.608;2023-08-17T17:37:33;21.70;;;9.50;;
22415;SDS011;12204;50.600;4.608;2023-08-17T17:43:00;18.75;;;9.02;;
22415;SDS011;12204;50.600;4.608;2023-08-17T17:48:05;21.33;;;8.95;;
22415;SDS011;12204;50.600;4.608;2023-08-17T17:53:12;18.45;;;8.40;;
22415;SDS011;12204;50.600;4.608;2023-08-17T17:58:16;17.50;;;8.38;;
22415;SDS011;12204;50.600;4.608;2023-08-17T18:03:22;18.13;;;8.17;;
22415;SDS011;12204;50.600;4.608;2023-08-17T18:08:27;17.75;;;8.65;;
22415;SDS011;12204;50.600;4.608;2023-08-17T18:13:40;18.25;;;7.95;;
22415;SDS011;12204;50.600;4.608;2023-08-17T18:18:44;15.32;;;7.63;;
22415;SDS011;12204;50.600;4.608;2023-08-17T18:24:08;15.68;;;7.93;;
22415;SDS011;12204;50.600;4.608;2023-08-17T18:29:11;14.02;;;7.70;;
22415;SDS011;12204;50.600;4.608;2023-08-17T18:34:17;14.80;;;7.80;;
22415;SDS011;12204;50.600;4.608;2023-08-17T18:39:50;13.38;;;7.30;;
22415;SDS011;12204;50.600;4.608;2023-08-17T18:51:48;12.00;;;7.20;;
22415;SDS011;12204;50.600;4.608;2023-08-17T18:56:53;14.43;;;7.53;;
22415;SDS011;12204;50.600;4.608;2023-08-17T19:01:56;14.50;;;7.15;;
22415;SDS011;12204;50.600;4.608;2023-08-17T19:07:06;15.75;;;7.28;;
22415;SDS011;12204;50.600;4.608;2023-08-17T19:12:11;12.45;;;6.75;;
22415;SDS011;12204;50.600;4.608;2023-08-17T19:17:27;14.95;;;6.90;;
22415;SDS011;12204;50.600;4.608;2023-08-17T19:23:20;26.55;;;13.10;;
22415;SDS011;12204;50.600;4.608;2023-08-17T19:28:25;95.03;;;41.85;;
22415;SDS011;12204;50.600;4.608;2023-08-17T19:33:29;127.70;;;58.10;;
22415;SDS011;12204;50.600;4.608;2023-08-17T19:50:53;359.67;;;159.15;;
22415;SDS011;12204;50.600;4.608;2023-08-17T20:03:48;278.85;;;127.05;;
22415;SDS011;12204;50.600;4.608;2023-08-17T20:19:59;194.45;;;91.57;;
22415;SDS011;12204;50.600;4.608;2023-08-17T20:25:22;170.38;;;79.05;;
22415;SDS011;12204;50.600;4.608;2023-08-17T20:30:30;147.60;;;69.70;;
22415;SDS011;12204;50.600;4.608;2023-08-17T20:35:33;141.50;;;64.93;;
22415;SDS011;12204;50.600;4.608;2023-08-17T20:41:05;133.07;;;61.38;;
22415;SDS011;12204;50.600;4.608;2023-08-17T20:46:27;117.57;;;58.55;;
22415;SDS011;12204;50.600;4.608;2023-08-17T20:51:42;111.10;;;53.58;;
22415;SDS011;12204;50.600;4.608;2023-08-17T20:57:09;99.75;;;50.13;;
22415;SDS011;12204;50.600;4.608;2023-08-17T21:02:14;91.07;;;48.08;;
22415;SDS011;12204;50.600;4.608;2023-08-17T21:07:18;93.25;;;46.65;;
22415;SDS011;12204;50.600;4.608;2023-08-17T21:12:24;82.68;;;43.65;;
22415;SDS011;12204;50.600;4.608;2023-08-17T21:22:34;81.43;;;43.58;;
22415;SDS011;12204;50.600;4.608;2023-08-17T21:27:40;85.18;;;43.50;;
22415;SDS011;12204;50.600;4.608;2023-08-17T21:32:45;75.75;;;40.65;;
22415;SDS011;12204;50.600;4.608;2023-08-17T21:37:48;73.75;;;37.15;;
22415;SDS011;12204;50.600;4.608;2023-08-17T21:42:52;62.92;;;34.35;;
22415;SDS011;12204;50.600;4.608;2023-08-17T21:47:57;60.75;;;33.63;;
22415;SDS011;12204;50.600;4.608;2023-08-17T21:53:00;57.50;;;31.08;;
22415;SDS011;12204;50.600;4.608;2023-08-17T21:58:04;48.30;;;28.17;;
22415;SDS011;12204;50.600;4.608;2023-08-17T22:03:09;40.28;;;23.88;;
22415;SDS011;12204;50.600;4.608;2023-08-17T22:08:13;44.42;;;25.30;;
22415;SDS011;12204;50.600;4.608;2023-08-17T22:13:17;33.20;;;19.77;;
22415;SDS011;12204;50.600;4.608;2023-08-17T22:18:22;44.05;;;24.85;;
22415;SDS011;12204;50.600;4.608;2023-08-17T22:23:25;34.00;;;21.67;;
22415;SDS011;12204;50.600;4.608;2023-08-17T22:28:29;40.33;;;23.40;;
22415;SDS011;12204;50.600;4.608;2023-08-17T22:33:34;34.08;;;22.05;;
22415;SDS011;12204;50.600;4.608;2023-08-17T22:38:38;34.35;;;21.77;;
22415;SDS011;12204;50.600;4.608;2023-08-17T22:43:42;29.80;;;20.67;;
22415;SDS011;12204;50.600;4.608;2023-08-17T22:48:47;31.90;;;18.80;;
22415;SDS011;12204;50.600;4.608;2023-08-17T22:53:51;27.90;;;19.55;;
22415;SDS011;12204;50.600;4.608;2023-08-17T22:58:54;31.05;;;19.25;;
22415;SDS011;12204;50.600;4.608;2023-08-17T23:03:59;32.42;;;18.33;;
22415;SDS011;12204;50.600;4.608;2023-08-17T23:09:03;32.22;;;17.60;;
22415;SDS011;12204;50.600;4.608;2023-08-17T23:14:07;28.38;;;18.05;;
22415;SDS011;12204;50.600;4.608;2023-08-17T23:19:12;26.90;;;17.85;;
22415;SDS011;12204;50.600;4.608;2023-08-17T23:24:15;28.80;;;18.15;;
22415;SDS011;12204;50.600;4.608;2023-08-17T23:29:21;26.85;;;16.98;;
22415;SDS011;12204;50.600;4.608;2023-08-17T23:34:26;27.25;;;17.00;;
22415;SDS011;12204;50.600;4.608;2023-08-17T23:39:30;25.98;;;16.55;;
22415;SDS011;12204;50.600;4.608;2023-08-17T23:44:34;26.92;;;17.00;;
22415;SDS011;12204;50.600;4.608;2023-08-17T23:49:39;27.70;;;16.58;;
22415;SDS011;12204;50.600;4.608;2023-08-17T23:54:42;26.23;;;15.82;;
22415;SDS011;12204;50.600;4.608;2023-08-17T23:59:46;26.08;;;16.42;;
